CheckWX is a tool to help pilots better visualize weather data.  It is not intended as a substitute for an official pre-flight weather briefing.

00:06:03 UTC

KPRC METAR
Ernest A Love Field Airport
Prescott, Arizona, USA
Current

13 mins ago

KPRC 242353Z 34010G20KT 10SM CLR 14/M08 A3011 RMK AO2 SLP166 T01441078 10156 20083 58006
Observed
Feb-24 @ 23:53 UTC
Wind
  • 340° at 10 KTS
  • Gusting to 20 KTS
Visibility
10 SM
Flight Rules
VFR
Cloud Levels
  • Clear skies
Temperature
14°C / 57°F
Dewpoint
-8°C / 18°F
Humidity
21%
Altimeter
30.11" Hg
Pressure
1019.62 hPa
Previous

1 hour ago

KPRC 242253Z 33013KT 10SM CLR 13/M07 A3012 RMK AO2 SLP173 T01281072
Observed
Feb-24 @ 22:53 UTC
Wind
  • 330° at 13 KTS
Visibility
10 SM
Flight Rules
VFR
Cloud Levels
  • Clear skies
Temperature
13°C / 55°F
Dewpoint
-7°C / 19°F
Humidity
24%
Altimeter
30.12" Hg
Pressure
1020.02 hPa
Previous

2 hours ago

KPRC 242153Z 32013G22KT 10SM CLR 15/M08 A3013 RMK AO2 PK WND 31027/2107 SLP170 T01501078
Observed
Feb-24 @ 21:53 UTC
Wind
  • 320° at 13 KTS
  • Gusting to 22 KTS
Visibility
10 SM
Flight Rules
VFR
Cloud Levels
  • Clear skies
Temperature
15°C / 59°F
Dewpoint
-8°C / 18°F
Humidity
20%
Altimeter
30.13" Hg
Pressure
1020.32 hPa